Time;durP1;ratioP1;P1;durP2;ratioP2;P2;SDS_P1;SDS_P2;PMS_P1;PMS_P2;Temp;Humidity;BMP_temperature;BMP_pressure;BME280_temperature;BME280_humidity;BME280_pressure;Samples;Min_cycle;Max_cycle;Signal;HPM_P1;HPM_P2
2022/08/27 00:01:29;;;;;;;6.95;2.75;;;14.80;99.90;;;;;;5044135;28;20057;-69
2022/08/27 00:03:56;;;;;;;20.35;14.93;;;14.80;99.90;;;;;;5051182;28;20097;-69
2022/08/27 00:06:23;;;;;;;21.75;17.30;;;14.80;99.90;;;;;;5053779;28;20483;-69
2022/08/27 00:08:49;;;;;;;12.40;8.27;;;14.80;99.90;;;;;;5051167;28;20046;-69
2022/08/27 00:11:17;;;;;;;14.25;7.80;;;14.70;99.90;;;;;;5042375;28;20392;-69
2022/08/27 00:13:43;;;;;;;8.23;4.00;;;14.60;99.90;;;;;;5064939;28;20067;-69
2022/08/27 00:16:11;;;;;;;6.85;3.50;;;14.70;99.90;;;;;;5040429;28;20040;-69
2022/08/27 00:18:38;;;;;;;5.60;2.63;;;14.60;99.90;;;;;;5048341;28;20051;-69
2022/08/27 00:21:05;;;;;;;6.30;2.53;;;14.60;99.90;;;;;;5047070;28;20044;-69
2022/08/27 00:23:31;;;;;;;6.90;2.72;;;14.60;99.90;;;;;;5046988;28;20121;-69
2022/08/27 00:25:57;;;;;;;3.67;2.40;;;14.60;99.90;;;;;;5066535;28;20032;-69
2022/08/27 00:28:25;;;;;;;7.25;2.85;;;14.50;99.90;;;;;;5049495;28;20044;-69
2022/08/27 00:30:51;;;;;;;12.48;3.42;;;14.60;99.90;;;;;;5046396;28;20055;-69
2022/08/27 00:33:17;;;;;;;4.53;2.35;;;14.50;99.90;;;;;;5061291;28;20489;-69
2022/08/27 00:35:43;;;;;;;7.07;2.65;;;14.40;99.90;;;;;;5042220;28;20040;-69
2022/08/27 00:38:09;;;;;;;6.60;3.00;;;14.50;99.90;;;;;;5048664;28;20122;-69
2022/08/27 00:40:34;;;;;;;7.70;2.80;;;14.50;99.90;;;;;;5055336;28;20048;-68
2022/08/27 00:43:02;;;;;;;5.60;3.15;;;14.50;99.90;;;;;;5046322;28;20040;-71
2022/08/27 00:45:31;;;;;;;5.68;2.78;;;14.60;99.90;;;;;;5047437;28;20045;-68
2022/08/27 00:47:59;;;;;;;7.07;3.33;;;14.60;99.90;;;;;;5055672;28;20086;-70
2022/08/27 00:50:38;;;;;;;10.20;3.50;;;14.60;99.90;;;;;;5048994;28;20040;-69
2022/08/27 00:53:14;;;;;;;8.63;3.08;;;14.60;99.90;;;;;;5069675;28;20040;-70
2022/08/27 00:55:45;;;;;;;7.25;3.25;;;14.60;99.90;;;;;;5050543;28;20068;-70
2022/08/27 00:58:19;;;;;;;8.65;3.20;;;14.60;99.90;;;;;;5047040;28;20044;-69
2022/08/27 01:00:46;;;;;;;7.60;3.13;;;14.60;99.90;;;;;;5063004;28;20057;-69
2022/08/27 01:03:12;;;;;;;9.02;3.55;;;14.70;99.90;;;;;;5067264;28;20045;-70
2022/08/27 01:05:39;;;;;;;9.00;3.00;;;14.70;99.90;;;;;;5046494;28;20037;-70
2022/08/27 01:08:13;;;;;;;6.43;3.60;;;14.70;99.90;;;;;;5061553;28;20047;-70
2022/08/27 01:10:40;;;;;;;8.65;3.45;;;14.70;99.90;;;;;;5045053;28;20032;-69
2022/08/27 01:13:09;;;;;;;9.23;3.60;;;14.80;99.90;;;;;;5068118;28;20041;-70
2022/08/27 01:15:35;;;;;;;8.10;3.47;;;14.80;99.90;;;;;;5066841;28;20039;-69
2022/08/27 01:18:04;;;;;;;8.00;2.88;;;14.80;99.90;;;;;;5050541;28;20394;-69
2022/08/27 01:20:55;;;;;;;8.73;3.38;;;14.80;99.90;;;;;;5048396;28;20047;-69
2022/08/27 01:23:28;;;;;;;9.05;3.45;;;14.80;99.90;;;;;;5045532;28;20079;-70
2022/08/27 01:25:54;;;;;;;9.88;3.47;;;14.70;99.90;;;;;;5045880;28;20052;-69
2022/08/27 01:28:20;;;;;;;5.00;2.80;;;14.70;99.90;;;;;;5045827;28;20044;-70
2022/08/27 01:30:46;;;;;;;7.72;3.20;;;14.70;99.90;;;;;;5042100;28;20189;-69
2022/08/27 01:33:18;;;;;;;6.50;3.17;;;14.70;99.90;;;;;;5046520;28;20128;-70
2022/08/27 01:35:47;;;;;;;4.57;3.03;;;14.70;99.90;;;;;;5045205;28;20448;-69
2022/08/27 01:38:14;;;;;;;7.82;3.55;;;14.70;99.90;;;;;;5046261;28;20049;-70
2022/08/27 01:40:40;;;;;;;9.35;3.22;;;14.70;99.90;;;;;;5046910;28;20126;-70
2022/08/27 01:43:07;;;;;;;6.65;3.33;;;14.70;99.90;;;;;;5049435;28;20137;-70
2022/08/27 01:45:38;;;;;;;8.18;3.78;;;14.70;99.90;;;;;;5048419;28;20036;-69
2022/08/27 01:48:06;;;;;;;9.15;3.80;;;14.70;99.90;;;;;;5047145;28;20071;-69
2022/08/27 01:50:35;;;;;;;8.70;3.83;;;14.60;99.90;;;;;;5041898;28;20389;-70
2022/08/27 01:53:08;;;;;;;7.78;3.50;;;14.60;99.90;;;;;;5057571;28;20073;-70
2022/08/27 01:55:34;;;;;;;8.85;3.33;;;14.60;99.90;;;;;;5044550;28;20044;-70
2022/08/27 01:58:00;;;;;;;7.25;3.85;;;14.60;99.90;;;;;;5044953;28;20130;-69
2022/08/27 02:00:29;;;;;;;7.47;3.60;;;14.60;99.90;;;;;;5065213;28;20053;-67
2022/08/27 02:02:57;;;;;;;9.23;3.75;;;14.60;99.90;;;;;;5046765;28;20051;-68
2022/08/27 02:05:23;;;;;;;6.47;3.30;;;14.50;99.90;;;;;;5061109;28;20091;-67
2022/08/27 02:07:49;;;;;;;9.65;3.88;;;14.50;99.90;;;;;;5046620;28;20048;-68
2022/08/27 02:10:20;;;;;;;8.48;4.65;;;14.50;99.90;;;;;;5045499;28;20041;-67
2022/08/27 02:12:46;;;;;;;8.18;4.18;;;14.40;99.90;;;;;;5034093;28;20048;-67
2022/08/27 02:15:12;;;;;;;8.65;3.92;;;14.40;99.90;;;;;;5049427;28;20097;-67
2022/08/27 02:17:38;;;;;;;8.05;4.00;;;14.40;99.90;;;;;;5038554;28;20124;-67
2022/08/27 02:20:09;;;;;;;8.45;4.22;;;14.40;99.90;;;;;;5062506;28;20088;-67
2022/08/27 02:22:35;;;;;;;7.68;3.85;;;14.40;99.90;;;;;;5048906;28;20059;-68
2022/08/27 02:25:02;;;;;;;8.25;4.13;;;14.40;99.90;;;;;;5068294;28;20119;-69
2022/08/27 02:27:28;;;;;;;6.43;3.90;;;14.30;99.90;;;;;;5046051;28;20384;-69
2022/08/27 02:29:54;;;;;;;11.07;4.03;;;14.30;99.90;;;;;;5045047;28;20048;-69
2022/08/27 02:32:21;;;;;;;8.27;4.28;;;14.30;99.90;;;;;;5055329;28;20120;-68
2022/08/27 02:34:46;;;;;;;8.40;4.53;;;14.30;99.90;;;;;;5044784;28;20083;-68
2022/08/27 02:37:13;;;;;;;8.30;4.78;;;14.30;99.90;;;;;;5064673;28;20037;-69
2022/08/27 02:39:38;;;;;;;8.02;4.38;;;14.30;99.90;;;;;;5053442;28;20441;-69
2022/08/27 02:42:04;;;;;;;7.35;3.88;;;14.30;99.90;;;;;;5042413;28;20121;-68
2022/08/27 02:44:30;;;;;;;6.75;4.18;;;14.30;99.90;;;;;;5049773;28;20052;-69
2022/08/27 02:46:57;;;;;;;8.68;4.85;;;14.30;99.90;;;;;;5049938;28;20480;-69
2022/08/27 02:49:23;;;;;;;8.82;4.35;;;14.30;99.90;;;;;;5032205;28;20134;-69
2022/08/27 02:51:53;;;;;;;11.23;4.90;;;14.30;99.90;;;;;;5068622;28;20088;-68
2022/08/27 02:54:19;;;;;;;9.45;4.88;;;14.20;99.90;;;;;;5034255;28;20073;-69
2022/08/27 02:56:44;;;;;;;8.70;4.22;;;14.20;99.90;;;;;;5035043;28;20578;-69
2022/08/27 02:59:10;;;;;;;8.90;4.15;;;14.20;99.90;;;;;;5051067;28;20544;-69
2022/08/27 03:01:36;;;;;;;8.43;4.10;;;14.20;99.90;;;;;;5045948;28;20101;-69
2022/08/27 03:04:02;;;;;;;7.65;4.18;;;14.10;99.90;;;;;;5040895;28;20064;-69
2022/08/27 03:06:28;;;;;;;7.18;4.10;;;14.10;99.90;;;;;;5065471;28;20436;-68
2022/08/27 03:08:54;;;;;;;12.52;4.43;;;14.10;99.90;;;;;;5041363;28;20599;-69
2022/08/27 03:11:24;;;;;;;7.68;4.53;;;14.10;99.90;;;;;;5050651;28;20036;-69
2022/08/27 03:13:50;;;;;;;8.60;4.53;;;14.10;99.90;;;;;;5046568;28;20052;-69
2022/08/27 03:16:16;;;;;;;7.45;4.43;;;14.10;99.90;;;;;;5050351;28;20045;-69
2022/08/27 03:18:42;;;;;;;8.82;4.18;;;14.10;99.90;;;;;;5047459;28;20044;-68
2022/08/27 03:21:08;;;;;;;6.95;3.88;;;14.00;99.90;;;;;;5064310;28;20033;-68
2022/08/27 03:23:34;;;;;;;6.95;4.18;;;14.10;99.90;;;;;;5045017;28;20049;-68
2022/08/27 03:26:02;;;;;;;6.13;3.95;;;14.20;99.90;;;;;;5063003;28;20103;-69
2022/08/27 03:28:32;;;;;;;8.35;4.32;;;14.20;99.90;;;;;;5043490;28;20539;-69
2022/08/27 03:31:01;;;;;;;8.27;4.05;;;14.20;99.90;;;;;;5053021;28;20047;-69
2022/08/27 03:33:28;;;;;;;6.28;3.95;;;14.30;99.90;;;;;;5044391;28;20037;-69
2022/08/27 03:35:54;;;;;;;12.93;4.28;;;14.20;99.90;;;;;;5045879;28;20048;-68
2022/08/27 03:38:21;;;;;;;6.82;4.40;;;14.30;99.90;;;;;;5046571;28;20052;-69
2022/08/27 03:40:49;;;;;;;4.57;3.25;;;14.30;99.90;;;;;;5049252;28;20040;-69
2022/08/27 03:43:16;;;;;;;7.15;3.80;;;14.30;99.90;;;;;;5044791;28;20090;-68
2022/08/27 03:45:42;;;;;;;7.85;4.13;;;14.20;99.90;;;;;;5046648;28;20526;-68
2022/08/27 03:48:09;;;;;;;6.15;4.20;;;14.20;99.90;;;;;;5045117;28;20065;-68
2022/08/27 03:50:37;;;;;;;7.90;3.85;;;14.10;99.90;;;;;;5060360;28;20094;-69
2022/08/27 03:53:03;;;;;;;7.82;3.63;;;14.10;99.90;;;;;;5044821;28;20154;-69
2022/08/27 03:55:29;;;;;;;7.00;3.92;;;14.00;99.90;;;;;;5034182;28;20068;-68
2022/08/27 03:57:54;;;;;;;8.20;3.85;;;14.00;99.90;;;;;;5047089;28;20041;-68
2022/08/27 04:00:20;;;;;;;5.40;3.75;;;13.90;99.90;;;;;;5039693;28;20053;-69
2022/08/27 04:02:46;;;;;;;8.23;3.88;;;13.90;99.90;;;;;;5033277;28;20068;-69
2022/08/27 04:05:13;;;;;;;6.47;4.43;;;13.90;99.90;;;;;;5053487;28;20121;-68
2022/08/27 04:07:40;;;;;;;7.43;3.80;;;13.80;99.90;;;;;;5048896;28;20037;-69
2022/08/27 04:10:08;;;;;;;8.27;3.88;;;13.80;99.90;;;;;;5042992;28;20056;-69
2022/08/27 04:12:34;;;;;;;9.93;4.00;;;13.80;99.90;;;;;;5050908;28;20079;-69
2022/08/27 04:15:00;;;;;;;6.95;4.13;;;13.80;99.90;;;;;;5069247;28;20052;-68
2022/08/27 04:17:25;;;;;;;9.38;4.10;;;13.90;99.90;;;;;;5046719;28;20041;-69
2022/08/27 04:19:52;;;;;;;10.23;4.45;;;13.80;99.90;;;;;;5045341;28;20377;-70
2022/08/27 04:22:19;;;;;;;10.20;4.22;;;13.80;99.90;;;;;;5068389;28;20028;-69
2022/08/27 04:24:45;;;;;;;7.63;4.32;;;13.90;99.90;;;;;;5064859;28;20041;-70
2022/08/27 04:27:13;;;;;;;6.00;3.70;;;13.90;99.90;;;;;;5049350;28;20052;-69
2022/08/27 04:29:39;;;;;;;7.85;3.90;;;13.90;99.90;;;;;;5064140;28;20052;-69
2022/08/27 04:32:05;;;;;;;9.60;4.00;;;13.90;99.90;;;;;;5047724;28;20058;-69
2022/08/27 04:34:32;;;;;;;9.70;4.07;;;14.00;99.90;;;;;;5041523;28;20041;-69
2022/08/27 04:36:58;;;;;;;8.40;3.60;;;14.00;99.90;;;;;;5045300;28;20056;-69
2022/08/27 04:39:26;;;;;;;8.25;3.38;;;14.00;99.90;;;;;;5033561;28;20059;-69
2022/08/27 04:41:54;;;;;;;7.63;3.42;;;14.00;99.90;;;;;;5041121;28;20063;-69
2022/08/27 04:44:21;;;;;;;5.13;3.72;;;14.10;99.90;;;;;;5045275;28;20068;-69
2022/08/27 04:46:47;;;;;;;7.75;3.65;;;14.20;99.90;;;;;;5046110;28;20033;-70
2022/08/27 04:49:14;;;;;;;7.93;4.25;;;14.20;99.90;;;;;;5029156;28;20414;-70
2022/08/27 04:51:40;;;;;;;6.03;4.28;;;14.20;99.90;;;;;;5063804;28;20037;-69
2022/08/27 04:54:06;;;;;;;10.35;4.20;;;14.20;99.90;;;;;;5047755;28;20029;-69
2022/08/27 04:56:33;;;;;;;6.03;4.05;;;14.20;99.90;;;;;;5050882;28;20037;-69
2022/08/27 04:59:02;;;;;;;7.03;4.22;;;14.20;99.90;;;;;;5051358;28;20041;-69
2022/08/27 05:01:29;;;;;;;6.97;4.00;;;14.20;99.90;;;;;;5062228;28;20628;-69
2022/08/27 05:03:54;;;;;;;7.63;4.05;;;14.30;99.90;;;;;;5043065;28;20071;-69
2022/08/27 05:06:21;;;;;;;9.60;4.13;;;14.30;99.90;;;;;;5044362;28;20037;-69
2022/08/27 05:08:48;;;;;;;11.13;4.13;;;14.30;99.90;;;;;;5044208;28;20496;-69
2022/08/27 05:11:16;;;;;;;12.35;4.13;;;14.30;99.90;;;;;;5062745;28;20037;-69
2022/08/27 05:13:43;;;;;;;8.60;4.22;;;14.30;99.90;;;;;;5047844;28;20418;-69
2022/08/27 05:16:13;;;;;;;7.25;4.10;;;14.40;99.90;;;;;;5045773;28;20485;-69
2022/08/27 05:18:39;;;;;;;8.20;4.00;;;14.40;99.90;;;;;;5042661;28;20098;-69
2022/08/27 05:21:06;;;;;;;6.78;3.70;;;14.30;99.90;;;;;;5061545;28;20047;-69
2022/08/27 05:23:32;;;;;;;5.32;3.70;;;14.40;99.90;;;;;;5060936;28;20071;-69
2022/08/27 05:25:59;;;;;;;7.60;3.97;;;14.50;99.90;;;;;;5049626;28;20047;-69
2022/08/27 05:28:27;;;;;;;7.65;4.25;;;14.50;99.90;;;;;;5053706;28;20083;-69
2022/08/27 05:30:55;;;;;;;6.97;3.95;;;14.50;99.90;;;;;;5041862;28;20067;-69
2022/08/27 05:33:24;;;;;;;7.28;4.20;;;14.50;99.90;;;;;;5046559;28;20147;-69
2022/08/27 05:35:52;;;;;;;7.18;3.88;;;14.60;99.90;;;;;;5044679;28;20037;-69
2022/08/27 05:38:19;;;;;;;6.95;4.05;;;14.60;99.90;;;;;;5060717;28;20036;-69
2022/08/27 05:40:46;;;;;;;6.82;3.95;;;14.70;99.90;;;;;;5049091;28;20424;-69
2022/08/27 05:43:16;;;;;;;8.85;3.92;;;14.80;99.90;;;;;;5040135;28;20106;-69
2022/08/27 05:45:44;;;;;;;5.80;3.60;;;15.10;99.90;;;;;;5043537;28;20033;-69
2022/08/27 05:48:10;;;;;;;8.43;3.97;;;15.50;99.90;;;;;;5050388;28;20048;-69
2022/08/27 05:50:38;;;;;;;5.82;3.17;;;15.80;99.90;;;;;;5046625;28;20419;-69
2022/08/27 05:53:04;;;;;;;6.47;3.38;;;15.80;99.90;;;;;;5049729;28;20045;-69
2022/08/27 05:55:34;;;;;;;8.18;3.20;;;15.80;99.90;;;;;;5043674;28;20056;-69
2022/08/27 05:58:00;;;;;;;9.63;3.50;;;15.70;99.90;;;;;;5049163;28;20056;-70
2022/08/27 06:03:10;;;;;;;5.47;3.60;;;15.60;99.90;;;;;;5064076;28;20048;-69
2022/08/27 06:05:36;;;;;;;7.28;3.28;;;15.50;99.90;;;;;;5061349;28;20044;-69
2022/08/27 06:08:02;;;;;;;9.30;3.78;;;15.50;99.90;;;;;;5062353;28;20059;-69
2022/08/27 06:10:27;;;;;;;5.55;3.00;;;15.50;99.90;;;;;;5046926;28;20124;-69
2022/08/27 06:12:53;;;;;;;5.38;2.95;;;15.50;99.90;;;;;;5050474;28;20072;-69
2022/08/27 06:15:19;;;;;;;5.15;3.03;;;15.40;99.90;;;;;;5045757;28;20036;-69
2022/08/27 06:17:44;;;;;;;8.73;3.17;;;15.40;99.90;;;;;;5039112;28;20049;-69
2022/08/27 06:20:10;;;;;;;5.60;2.90;;;15.40;99.90;;;;;;5047277;28;20051;-69
2022/08/27 06:22:36;;;;;;;5.80;2.95;;;15.40;99.90;;;;;;5053264;28;20060;-69
2022/08/27 06:25:03;;;;;;;5.78;2.90;;;15.50;99.90;;;;;;5051874;28;20488;-69
2022/08/27 06:27:29;;;;;;;7.05;2.67;;;15.60;99.90;;;;;;5054111;28;20052;-69
2022/08/27 06:29:55;;;;;;;6.95;2.88;;;15.70;99.90;;;;;;5072671;28;20044;-69
2022/08/27 06:32:22;;;;;;;5.82;2.45;;;15.80;99.90;;;;;;5052398;28;20052;-69
2022/08/27 06:34:48;;;;;;;6.10;2.33;;;16.00;99.90;;;;;;5046162;28;20119;-69
2022/08/27 06:37:14;;;;;;;5.85;2.42;;;16.00;99.90;;;;;;5053130;28;20056;-69
2022/08/27 06:39:40;;;;;;;7.55;2.88;;;16.10;99.90;;;;;;5051715;28;20112;-68
2022/08/27 06:42:10;;;;;;;6.78;2.78;;;16.30;99.90;;;;;;5046959;28;20130;-69
2022/08/27 06:44:36;;;;;;;5.90;2.97;;;16.40;99.90;;;;;;5046157;28;20102;-69
2022/08/27 06:47:02;;;;;;;6.43;2.30;;;16.40;99.90;;;;;;5054102;28;20489;-69
2022/08/27 06:49:28;;;;;;;4.50;2.38;;;16.50;99.90;;;;;;5049085;28;20415;-70
2022/08/27 06:51:54;;;;;;;7.65;2.22;;;16.60;99.90;;;;;;5053965;28;20076;-69
2022/08/27 06:54:20;;;;;;;5.93;2.38;;;16.70;99.90;;;;;;5051506;28;20064;-71
2022/08/27 06:56:48;;;;;;;3.70;2.42;;;16.80;99.90;;;;;;5052340;28;20067;-67
2022/08/27 06:59:16;;;;;;;11.35;2.88;;;16.90;99.90;;;;;;5044105;28;20048;-68
2022/08/27 07:01:45;;;;;;;8.73;2.60;;;17.10;99.90;;;;;;5052085;28;20049;-68
2022/08/27 07:04:16;;;;;;;5.70;1.88;;;17.20;99.90;;;;;;5042676;28;20033;-68
2022/08/27 07:06:42;;;;;;;9.02;2.53;;;17.30;99.90;;;;;;5051691;28;20056;-68
2022/08/27 07:09:08;;;;;;;6.35;2.35;;;17.40;99.90;;;;;;5046469;28;20056;-68
2022/08/27 07:11:35;;;;;;;5.07;2.20;;;17.50;99.90;;;;;;5055132;28;20135;-68
2022/08/27 07:14:01;;;;;;;6.45;2.25;;;17.60;99.90;;;;;;5066214;28;20460;-67
2022/08/27 07:16:27;;;;;;;5.93;2.08;;;17.70;99.90;;;;;;5050663;28;20105;-67
2022/08/27 07:18:55;;;;;;;7.18;2.47;;;17.70;99.90;;;;;;5052980;28;20037;-67
2022/08/27 07:21:22;;;;;;;4.40;2.30;;;17.80;99.90;;;;;;5049385;28;20056;-69
2022/08/27 07:23:50;;;;;;;5.82;2.20;;;17.90;99.90;;;;;;5072726;28;20456;-68
2022/08/27 07:26:16;;;;;;;3.95;1.88;;;18.10;99.90;;;;;;5046901;28;20060;-67
2022/08/27 07:28:45;;;;;;;6.68;1.75;;;18.30;99.90;;;;;;5050809;28;20040;-68
2022/08/27 07:31:13;;;;;;;4.38;1.77;;;18.60;99.90;;;;;;5050972;28;20056;-68
2022/08/27 07:33:40;;;;;;;6.50;1.60;;;18.70;99.90;;;;;;5047307;28;20052;-67
2022/08/27 07:36:06;;;;;;;6.68;1.60;;;18.90;99.90;;;;;;5070802;28;20499;-67
2022/08/27 07:38:34;;;;;;;7.00;1.48;;;19.10;99.90;;;;;;5050100;28;20075;-67
2022/08/27 07:41:03;;;;;;;6.55;1.60;;;19.30;99.90;;;;;;5050834;28;20102;-68
2022/08/27 07:46:13;;;;;;;9.90;1.30;;;19.70;99.90;;;;;;5051074;28;20083;-67
2022/08/27 07:48:38;;;;;;;5.10;1.90;;;19.90;99.90;;;;;;5050943;28;20095;-68
2022/08/27 07:51:04;;;;;;;5.25;1.17;;;20.00;99.90;;;;;;5048666;28;20476;-68
2022/08/27 07:53:31;;;;;;;3.45;1.20;;;20.10;99.90;;;;;;5052684;28;20048;-69
2022/08/27 07:56:05;;;;;;;5.57;1.13;;;20.10;99.90;;;;;;5043390;28;20048;-69
2022/08/27 07:58:31;;;;;;;5.65;1.20;;;20.20;99.90;;;;;;5047816;28;20053;-68
2022/08/27 08:00:57;;;;;;;3.85;1.00;;;20.20;99.90;;;;;;5051162;28;20086;-69
2022/08/27 08:03:22;;;;;;;4.68;0.90;;;20.20;99.90;;;;;;5071615;28;20037;-68
2022/08/27 08:05:49;;;;;;;4.55;0.90;;;20.20;99.90;;;;;;5069946;28;20036;-68
2022/08/27 08:08:15;;;;;;;3.83;0.90;;;20.30;99.90;;;;;;5049689;28;20052;-68
2022/08/27 08:10:42;;;;;;;4.13;1.10;;;20.60;99.90;;;;;;5072556;28;20388;-68
2022/08/27 08:13:07;;;;;;;4.88;0.93;;;20.80;99.90;;;;;;5051786;28;20053;-69
2022/08/27 08:15:33;;;;;;;6.53;1.67;;;21.30;99.90;;;;;;5067044;28;20039;-69
2022/08/27 08:17:59;;;;;;;7.22;1.25;;;21.90;99.90;;;;;;5052215;28;20057;-68
2022/08/27 08:20:25;;;;;;;5.88;1.50;;;22.60;99.90;;;;;;5053537;28;20091;-69
2022/08/27 08:22:51;;;;;;;9.85;1.02;;;23.20;99.90;;;;;;5053478;28;20113;-69
2022/08/27 08:25:17;;;;;;;4.70;1.10;;;23.30;99.90;;;;;;5050069;28;20094;-69
2022/08/27 08:27:43;;;;;;;6.05;1.25;;;23.60;98.50;;;;;;5070826;28;20106;-69
2022/08/27 08:30:10;;;;;;;6.60;1.40;;;23.90;96.60;;;;;;5070916;28;20051;-69
2022/08/27 08:32:36;;;;;;;4.10;1.08;;;24.10;95.60;;;;;;5067737;28;20033;-69
2022/08/27 08:35:03;;;;;;;6.15;1.00;;;23.90;93.90;;;;;;5053081;28;20057;-69
2022/08/27 08:37:29;;;;;;;5.93;0.90;;;23.90;93.80;;;;;;5045575;28;20066;-69
2022/08/27 08:39:55;;;;;;;5.32;1.10;;;23.60;93.30;;;;;;5044974;28;20440;-68
2022/08/27 08:42:39;;;;;;;7.60;1.48;;;22.90;93.10;;;;;;5046052;28;20036;-68
2022/08/27 08:45:06;;;;;;;5.70;1.00;;;22.30;93.10;;;;;;5063562;28;20119;-69
2022/08/27 08:47:51;;;;;;;4.38;0.90;;;22.30;94.80;;;;;;5044580;28;20048;-69
2022/08/27 08:50:21;;;;;;;5.47;1.10;;;22.20;93.60;;;;;;5048034;28;20415;-69
2022/08/27 08:53:10;;;;;;;6.05;1.17;;;22.10;93.80;;;;;;5130303;27;20115;-68
2022/08/27 08:55:57;;;;;;;7.72;1.38;;;21.90;93.80;;;;;;5081002;28;20054;-67
2022/08/27 08:58:26;;;;;;;5.93;1.23;;;21.60;94.70;;;;;;5077589;28;20059;-68
2022/08/27 09:00:56;;;;;;;7.55;1.33;;;21.40;95.60;;;;;;5076262;28;20045;-68
2022/08/27 09:03:22;;;;;;;6.32;1.05;;;21.20;95.50;;;;;;5083017;28;20143;-69
2022/08/27 09:06:22;;;;;;;5.28;1.13;;;21.00;95.80;;;;;;5081861;28;20036;-69
2022/08/27 09:08:48;;;;;;;7.43;1.25;;;20.80;96.60;;;;;;5064181;28;20106;-68
2022/08/27 09:11:30;;;;;;;6.13;0.95;;;20.60;97.50;;;;;;5098758;28;20048;-68
2022/08/27 09:14:04;;;;;;;4.63;1.13;;;20.70;98.00;;;;;;5086389;28;20036;-68
2022/08/27 09:16:31;;;;;;;8.02;1.10;;;20.80;98.00;;;;;;5084217;28;20044;-68
2022/08/27 09:19:00;;;;;;;4.53;1.38;;;21.10;98.00;;;;;;5097567;28;20499;-68
2022/08/27 09:21:40;;;;;;;9.85;1.25;;;21.20;97.20;;;;;;5101725;28;20123;-68
2022/08/27 09:24:24;;;;;;;6.72;1.15;;;21.50;97.20;;;;;;5094443;28;20044;-68
2022/08/27 09:26:51;;;;;;;6.43;1.02;;;21.90;96.50;;;;;;5098701;28;20044;-68
2022/08/27 09:29:18;;;;;;;6.93;1.20;;;21.90;96.10;;;;;;5090742;28;20068;-68
2022/08/27 09:32:03;;;;;;;7.00;0.93;;;21.80;95.20;;;;;;5081354;28;20044;-68
2022/08/27 09:34:35;;;;;;;5.53;1.55;;;21.80;95.30;;;;;;5084170;28;20047;-68
2022/08/27 09:37:23;;;;;;;5.68;1.10;;;21.80;95.00;;;;;;5080636;28;20150;-68
2022/08/27 09:40:26;;;;;;;8.05;1.00;;;21.80;93.20;;;;;;5097234;28;20093;-68
2022/08/27 09:42:56;;;;;;;4.50;1.02;;;21.70;95.40;;;;;;5083386;28;20042;-68
2022/08/27 09:45:28;;;;;;;7.75;1.02;;;21.60;94.50;;;;;;5097355;28;20111;-68
2022/08/27 09:48:14;;;;;;;5.80;1.00;;;21.50;94.80;;;;;;5079948;28;20039;-68
2022/08/27 09:50:53;;;;;;;6.28;1.38;;;21.40;95.60;;;;;;5072170;28;20044;-67
2022/08/27 09:53:34;;;;;;;5.07;1.10;;;21.40;94.70;;;;;;5078788;28;20114;-68
2022/08/27 09:56:02;;;;;;;5.72;1.00;;;21.30;95.50;;;;;;5073746;28;20488;-67
2022/08/27 09:58:43;;;;;;;7.28;1.08;;;21.20;95.30;;;;;;5076884;28;20414;-68
2022/08/27 10:01:20;;;;;;;7.90;1.25;;;21.20;94.00;;;;;;5077623;28;20097;-68
2022/08/27 10:03:46;;;;;;;6.57;1.38;;;21.10;93.10;;;;;;5089854;28;20306;-67
2022/08/27 10:06:12;;;;;;;5.60;1.02;;;21.00;93.30;;;;;;5067431;28;20044;-68
2022/08/27 10:08:47;;;;;;;5.47;1.05;;;21.00;92.90;;;;;;5055437;28;20049;-68
2022/08/27 10:11:35;;;;;;;10.35;1.27;;;20.90;92.80;;;;;;5066712;28;20166;-67
2022/08/27 10:14:24;;;;;;;4.00;1.05;;;20.90;93.20;;;;;;5071512;28;20051;-68
2022/08/27 10:17:01;;;;;;;4.75;1.00;;;21.00;92.50;;;;;;5042676;28;20131;-67
2022/08/27 10:19:27;;;;;;;5.45;1.00;;;21.00;92.60;;;;;;5066823;28;20405;-68
2022/08/27 10:21:59;;;;;;;4.95;0.90;;;21.20;93.20;;;;;;5064161;28;20899;-68
2022/08/27 10:24:47;;;;;;;4.57;0.75;;;21.30;92.80;;;;;;5063546;28;20047;-68
2022/08/27 10:27:37;;;;;;;5.97;1.40;;;21.30;93.10;;;;;;5068364;28;20421;-68
2022/08/27 10:30:17;;;;;;;3.85;0.93;;;21.50;92.40;;;;;;5066008;28;20048;-67
2022/08/27 10:33:13;;;;;;;5.85;0.90;;;21.60;92.00;;;;;;5084557;28;20044;-67
2022/08/27 10:36:00;;;;;;;5.32;0.98;;;21.70;91.40;;;;;;5046401;28;20045;-65
2022/08/27 10:39:03;;;;;;;3.92;0.93;;;21.80;91.00;;;;;;5068891;28;20410;-64
2022/08/27 10:41:39;;;;;;;6.30;0.82;;;21.80;90.50;;;;;;5080755;28;20067;-65
2022/08/27 10:44:04;;;;;;;7.00;0.95;;;21.80;90.30;;;;;;5085770;28;20109;-65
2022/08/27 10:46:54;;;;;;;7.68;1.17;;;21.90;89.60;;;;;;5063548;28;20044;-63
2022/08/27 10:49:34;;;;;;;4.85;0.80;;;22.10;90.20;;;;;;5086815;28;20043;-66
2022/08/27 10:52:29;;;;;;;7.88;1.20;;;22.20;89.60;;;;;;5081584;28;20067;-65
2022/08/27 10:55:42;;;;;;;6.20;1.05;;;22.20;89.30;;;;;;5082736;28;20039;-66
2022/08/27 10:58:16;;;;;;;3.83;0.77;;;21.90;89.70;;;;;;4971534;28;20462;-67
2022/08/27 11:00:52;;;;;;;5.65;1.35;;;21.60;90.10;;;;;;5061363;28;20123;-66
2022/08/27 11:03:38;;;;;;;5.03;0.93;;;21.50;89.60;;;;;;5073123;28;20063;-65
2022/08/27 11:06:17;;;;;;;5.97;0.90;;;21.40;90.00;;;;;;5077074;28;20072;-65
2022/08/27 11:08:48;;;;;;;4.28;1.00;;;21.40;90.30;;;;;;5065589;28;20479;-65
2022/08/27 11:11:33;;;;;;;7.03;1.10;;;21.40;90.60;;;;;;5059781;28;20048;-67
2022/08/27 11:13:59;;;;;;;;;;;21.40;89.60;;;;;;5068288;28;20055;-67
2022/08/27 11:16:47;;;;;;;7.57;1.40;;;21.30;90.10;;;;;;5062958;28;19938;-65
2022/08/27 11:19:30;;;;;;;5.47;1.30;;;21.30;90.60;;;;;;5065844;28;20051;-65
2022/08/27 11:22:18;;;;;;;5.35;1.02;;;21.40;91.10;;;;;;5086285;28;20040;-66
2022/08/27 11:24:53;;;;;;;6.32;1.27;;;21.50;90.50;;;;;;5066229;28;20079;-65
2022/08/27 11:27:24;;;;;;;7.70;1.05;;;21.50;91.00;;;;;;5077927;28;20039;-66
2022/08/27 11:29:58;;;;;;;4.53;1.00;;;21.60;91.10;;;;;;5067774;28;20515;-66
2022/08/27 11:32:31;;;;;;;4.30;0.82;;;21.70;91.50;;;;;;5067126;28;20044;-65
2022/08/27 11:35:15;;;;;;;8.68;1.42;;;21.80;91.60;;;;;;5065880;28;20071;-66
2022/08/27 11:37:52;;;;;;;4.32;0.70;;;21.80;90.60;;;;;;5060375;28;20520;-66
2022/08/27 11:40:32;;;;;;;5.35;0.90;;;21.70;90.50;;;;;;5082565;28;20032;-65
2022/08/27 11:43:07;;;;;;;7.05;1.08;;;21.60;90.50;;;;;;5060603;28;20044;-65
2022/08/27 11:45:37;;;;;;;7.07;0.90;;;21.70;90.60;;;;;;5065695;28;20155;-64
2022/08/27 11:48:33;;;;;;;4.20;0.80;;;21.70;90.00;;;;;;5060637;28;20358;-64
2022/08/27 11:51:27;;;;;;;4.70;0.93;;;21.80;90.30;;;;;;5060438;28;20141;-64
2022/08/27 11:53:56;;;;;;;4.70;1.30;;;22.10;90.60;;;;;;5065707;28;20048;-66
2022/08/27 11:56:27;;;;;;;5.47;1.10;;;22.40;86.90;;;;;;5079418;28;20111;-66
2022/08/27 11:58:53;;;;;;;5.97;1.35;;;22.90;86.10;;;;;;5081862;28;20032;-66
2022/08/27 12:01:30;;;;;;;7.47;1.08;;;23.30;83.90;;;;;;5082310;28;20051;-66
2022/08/27 12:04:02;;;;;;;5.78;1.00;;;23.40;78.10;;;;;;5082912;28;20396;-66
2022/08/27 12:06:38;;;;;;;5.43;1.00;;;23.40;79.90;;;;;;5082528;28;20488;-67
2022/08/27 12:09:24;;;;;;;5.47;0.98;;;23.50;80.80;;;;;;5081798;28;20040;-66
2022/08/27 12:12:05;;;;;;;5.45;1.15;;;23.70;78.80;;;;;;5084867;28;20051;-66
2022/08/27 12:14:38;;;;;;;5.25;1.00;;;23.90;77.50;;;;;;5054665;28;20037;-67
2022/08/27 12:17:15;;;;;;;6.88;1.05;;;24.00;75.20;;;;;;5086645;28;20475;-66
2022/08/27 12:20:09;;;;;;;8.43;1.15;;;24.00;77.10;;;;;;5056973;28;20472;-66
2022/08/27 12:25:32;;;;;;;6.22;0.88;;;24.00;77.00;;;;;;5063654;28;20446;-65
2022/08/27 12:28:05;;;;;;;5.55;0.70;;;24.10;75.40;;;;;;5066994;28;20040;-65
2022/08/27 12:30:48;;;;;;;5.40;1.33;;;24.60;74.00;;;;;;5062816;28;20480;-66
2022/08/27 12:33:30;;;;;;;4.88;0.90;;;25.40;74.50;;;;;;5061127;28;20058;-64
2022/08/27 12:36:04;;;;;;;4.45;0.88;;;25.50;69.50;;;;;;5076924;28;20200;-65
2022/08/27 12:38:33;;;;;;;;;;;25.20;70.90;;;;;;5078143;28;20383;-63
2022/08/27 12:41:07;;;;;;;7.57;1.33;;;24.60;70.30;;;;;;5072303;28;19923;-65
2022/08/27 12:43:36;;;;;;;6.32;0.85;;;23.90;73.60;;;;;;5062938;28;20048;-65
2022/08/27 12:46:05;;;;;;;5.30;0.75;;;23.20;75.50;;;;;;5079616;28;20094;-65
2022/08/27 12:48:41;;;;;;;9.90;0.98;;;22.90;77.60;;;;;;5082105;28;20052;-65
2022/08/27 12:51:20;;;;;;;6.15;0.80;;;22.70;78.40;;;;;;5080375;28;20064;-65
2022/08/27 12:54:19;;;;;;;5.65;0.68;;;22.70;79.70;;;;;;5080833;28;20090;-65
2022/08/27 12:57:00;;;;;;;6.35;0.85;;;22.80;79.00;;;;;;5053349;28;20049;-64
2022/08/27 13:00:00;;;;;;;6.63;0.90;;;22.80;75.10;;;;;;5065025;28;20059;-64
2022/08/27 13:03:05;;;;;;;4.43;0.85;;;23.60;74.90;;;;;;5080385;28;20123;-68
2022/08/27 13:05:44;;;;;;;6.05;0.80;;;24.70;69.60;;;;;;5072254;28;20051;-67
2022/08/27 13:08:36;;;;;;;4.57;0.60;;;25.50;65.60;;;;;;5063501;28;20086;-67
2022/08/27 13:11:22;;;;;;;3.20;0.90;;;25.80;65.20;;;;;;5058403;28;20064;-67
2022/08/27 13:13:48;;;;;;;5.63;0.80;;;26.10;63.40;;;;;;5066685;28;20043;-67